Decoded Metar for LFBA (AGEN in FRANCE) (IATA:AGF) | Meteo·Mobile Aviation Weather
aviador You're here:

LFBA Decoded Metar

AGEN in FRANCE
Report Time2019-07-21 17:00:00
UTC Time2019-07-21 17:11:08
Flight Rules vfr VFR
Wind300° at 08 kt
W.Decomp.*RWY 29: 7.9 kt HW 1.4 kt RCW
Visibility9999 m
Phenomena:N/A
Clouds:N/A
Expected CloudBase > 5,200 ft AGL from Temp-Dew spread
CeilingNone
Temp31°C (ISA +16)
Dew Point18°C (46% RH)
Heat Index31.9°C
AAT30.9°C
QNH1020 hPa
Density Alt2,113 ft
Elevation197 ft
Report Wrong Elevation
Raw Report
METAR LFBA 211700Z AUTO 30008KT 270V340 CAVOK 31/18 Q1020 NOSIG=

Extra information for LFBA:More info

Metar Taf Metar & Taf Last 4 Metars F.Rules Stats Wind Profile Meteogram Temp Stats Airport Information Weather charts Add Link Nearby VenuesMetar ALERT Operation Metar Decoded Social comments